Time;durP1;ratioP1;P1;durP2;ratioP2;P2;SDS_P1;SDS_P2;PMS_P1;PMS_P2;Temp;Humidity;BMP_temperature;BMP_pressure;BME280_temperature;BME280_humidity;BME280_pressure;Samples;Min_cycle;Max_cycle;Signal;HPM_P1;HPM_P2
2024/03/14 00:02:06;;;;;;;3.90;3.53;;;12.10;50.50;;;;;;5078944;28;20286;-43
2024/03/14 00:04:31;;;;;;;4.07;3.67;;;12.00;50.40;;;;;;5077624;28;20443;-42
2024/03/14 00:06:57;;;;;;;4.40;4.00;;;12.00;51.90;;;;;;5078196;28;20177;-43
2024/03/14 00:09:23;;;;;;;5.23;4.03;;;11.90;57.50;;;;;;5078297;28;20169;-42
2024/03/14 00:11:49;;;;;;;4.83;3.87;;;11.80;60.30;;;;;;5078766;28;20169;-42
2024/03/14 00:14:15;;;;;;;5.10;3.87;;;11.80;58.80;;;;;;5078100;28;20177;-42
2024/03/14 00:16:41;;;;;;;4.50;4.10;;;11.70;57.10;;;;;;5077431;28;20730;-43
2024/03/14 00:19:06;;;;;;;3.93;3.57;;;11.70;60.20;;;;;;5077588;28;20435;-44
2024/03/14 00:21:32;;;;;;;4.00;3.60;;;11.60;55.40;;;;;;5077448;28;20216;-45
2024/03/14 00:23:58;;;;;;;4.23;3.80;;;11.60;54.20;;;;;;5077772;28;20407;-42
2024/03/14 00:26:23;;;;;;;4.03;3.20;;;11.50;50.10;;;;;;5077801;28;20177;-41
2024/03/14 00:28:51;;;;;;;4.50;3.93;;;11.50;50.20;;;;;;5078350;28;20463;-41
2024/03/14 00:31:16;;;;;;;3.20;2.90;;;11.50;99.90;;;;;;5076137;28;20181;-41
2024/03/14 00:33:43;;;;;;;3.63;3.30;;;12.00;1.00;;;;;;5078319;28;20427;-41
2024/03/14 00:36:11;;;;;;;4.23;3.00;;;12.50;1.00;;;;;;5077108;28;20177;-42
2024/03/14 00:38:36;;;;;;;3.07;2.70;;;13.00;1.00;;;;;;5077947;28;20468;-42
2024/03/14 00:41:03;;;;;;;2.73;2.53;;;13.50;99.90;;;;;;5078153;28;20478;-41
2024/03/14 00:43:30;;;;;;;3.50;3.03;;;13.90;99.90;;;;;;5077413;28;20571;-42
2024/03/14 00:45:56;;;;;;;3.07;2.50;;;14.20;52.20;;;;;;5084670;28;20418;-41
2024/03/14 00:48:22;;;;;;;3.53;3.23;;;14.60;1.00;;;;;;5097804;28;20422;-43
2024/03/14 00:50:49;;;;;;;2.90;2.60;;;14.80;1.00;;;;;;5097565;28;20824;-41
2024/03/14 00:53:15;;;;;;;2.70;2.50;;;15.00;99.90;;;;;;5079732;28;20176;-41
2024/03/14 00:55:41;;;;;;;3.40;3.00;;;15.10;1.00;;;;;;5097589;28;20678;-42
2024/03/14 00:58:06;;;;;;;2.80;2.57;;;15.30;1.00;;;;;;5097849;28;20172;-43
2024/03/14 01:00:32;;;;;;;2.73;2.53;;;15.40;99.90;;;;;;5097294;28;20462;-44
2024/03/14 01:02:58;;;;;;;2.90;2.60;;;15.50;1.00;;;;;;5097650;28;20269;-41
2024/03/14 01:05:24;;;;;;;2.57;2.37;;;15.60;99.90;;;;;;5097565;28;20640;-42
2024/03/14 01:07:50;;;;;;;3.03;2.43;;;15.60;1.00;;;;;;5097645;28;20203;-42
2024/03/14 01:10:16;;;;;;;3.40;3.10;;;15.70;64.40;;;;;;5080097;28;20418;-42
2024/03/14 01:12:42;;;;;;;3.60;3.30;;;15.80;1.00;;;;;;5097053;28;20858;-42
2024/03/14 01:15:08;;;;;;;3.87;3.30;;;15.60;1.00;;;;;;5097623;28;20176;-42
2024/03/14 01:17:34;;;;;;;3.70;3.40;;;15.20;60.80;;;;;;5097868;28;20180;-39
2024/03/14 01:20:00;;;;;;;4.27;3.87;;;14.70;5.40;;;;;;5096737;28;20464;-43
2024/03/14 01:22:26;;;;;;;5.00;4.60;;;14.30;99.90;;;;;;5096983;28;20667;-42
2024/03/14 01:24:51;;;;;;;4.53;4.13;;;13.80;1.00;;;;;;5097330;28;20551;-43
2024/03/14 01:27:18;;;;;;;4.30;3.90;;;13.50;99.90;;;;;;5094334;28;20669;-43
2024/03/14 01:29:45;;;;;;;4.33;3.93;;;13.10;99.90;;;;;;5075303;28;20180;-41
2024/03/14 01:32:11;;;;;;;5.07;4.60;;;12.90;1.00;;;;;;5094111;28;20578;-42
2024/03/14 01:34:37;;;;;;;4.83;4.43;;;12.60;1.00;;;;;;5097112;28;20465;-41
2024/03/14 01:37:06;;;;;;;4.30;4.00;;;12.40;73.90;;;;;;5079145;28;20777;-41
2024/03/14 01:39:35;;;;;;;4.97;4.50;;;12.20;99.90;;;;;;5097813;28;20184;-44
2024/03/14 01:42:04;;;;;;;5.23;4.73;;;12.10;1.00;;;;;;5097913;28;20576;-43
2024/03/14 01:45:05;;;;;;;5.27;4.83;;;11.90;1.00;;;;;;5099977;28;20430;-42
2024/03/14 01:47:31;;;;;;;6.00;5.40;;;11.80;93.90;;;;;;5066551;28;20424;-42
2024/03/14 01:49:56;;;;;;;5.20;4.70;;;11.70;99.90;;;;;;5081979;28;20850;-41
2024/03/14 01:52:24;;;;;;;5.47;4.90;;;11.60;99.90;;;;;;5100596;28;20185;-44
2024/03/14 01:54:50;;;;;;;5.33;4.83;;;11.50;99.90;;;;;;5083046;28;20586;-42
2024/03/14 01:57:16;;;;;;;5.13;4.53;;;11.40;99.90;;;;;;5101139;28;20508;-42
2024/03/14 01:59:42;;;;;;;5.60;5.10;;;11.30;99.90;;;;;;5101257;28;20180;-40
2024/03/14 02:02:08;;;;;;;6.07;5.53;;;11.30;1.00;;;;;;5100750;28;20490;-41
2024/03/14 02:04:43;;;;;;;6.50;5.90;;;11.20;1.00;;;;;;5101284;28;20427;-40
2024/03/14 02:07:09;;;;;;;5.50;5.00;;;11.20;1.00;;;;;;5103383;28;20845;-40
2024/03/14 02:09:36;;;;;;;5.83;5.33;;;11.10;1.00;;;;;;5121515;28;20417;-43
2024/03/14 02:12:04;;;;;;;5.50;4.97;;;11.10;1.00;;;;;;5120806;28;20512;-41
2024/03/14 02:14:30;;;;;;;9.03;6.40;;;11.10;1.00;;;;;;5103402;28;20685;-40
2024/03/14 02:16:57;;;;;;;6.27;5.63;;;11.00;1.00;;;;;;5119972;28;20421;-41
2024/03/14 02:19:23;;;;;;;7.03;6.33;;;10.90;1.00;;;;;;5119749;28;20726;-39
2024/03/14 02:21:48;;;;;;;7.50;6.40;;;10.90;1.00;;;;;;5118381;28;20518;-43
2024/03/14 02:24:14;;;;;;;8.27;7.10;;;10.90;1.00;;;;;;5119676;28;20167;-43
2024/03/14 02:26:43;;;;;;;7.17;6.47;;;10.90;1.00;;;;;;5119739;28;20258;-44
2024/03/14 02:29:09;;;;;;;7.50;6.50;;;10.80;1.00;;;;;;5119974;28;20779;-41
2024/03/14 02:31:35;;;;;;;7.40;6.70;;;10.80;1.00;;;;;;5085804;28;20703;-40
2024/03/14 02:34:04;;;;;;;6.57;5.97;;;10.80;1.00;;;;;;5120822;28;20426;-41
2024/03/14 02:36:31;;;;;;;6.90;6.20;;;10.80;1.00;;;;;;5121044;28;20437;-41
2024/03/14 02:38:56;;;;;;;7.23;6.60;;;10.70;1.00;;;;;;5119336;28;20409;-43
2024/03/14 02:41:22;;;;;;;7.10;6.37;;;10.70;1.00;;;;;;5101479;28;20469;-41
2024/03/14 02:43:52;;;;;;;8.43;7.20;;;10.60;1.00;;;;;;5119177;28;20180;-41
2024/03/14 02:46:18;;;;;;;7.60;6.83;;;10.60;1.00;;;;;;5119035;28;20168;-43
2024/03/14 02:48:44;;;;;;;7.33;6.63;;;10.60;1.00;;;;;;5100934;28;20827;-41
2024/03/14 02:51:10;;;;;;;7.30;6.60;;;10.60;1.00;;;;;;5119429;28;20359;-42
2024/03/14 02:53:36;;;;;;;8.03;7.10;;;10.50;1.00;;;;;;5119251;28;20535;-42
2024/03/14 02:56:03;;;;;;;7.80;7.00;;;10.50;6.20;;;;;;5101187;28;20532;-41
2024/03/14 02:58:29;;;;;;;8.27;6.97;;;10.40;5.90;;;;;;5119703;28;20584;-42
2024/03/14 03:00:54;;;;;;;7.13;6.43;;;10.40;3.70;;;;;;5102065;28;20988;-40
2024/03/14 03:03:20;;;;;;;8.10;6.87;;;10.40;7.80;;;;;;5120337;28;20179;-42
2024/03/14 03:05:49;;;;;;;7.07;6.47;;;10.40;7.00;;;;;;5102671;28;20207;-41
2024/03/14 03:08:18;;;;;;;7.00;6.30;;;10.30;6.80;;;;;;5121126;28;20206;-41
2024/03/14 03:10:44;;;;;;;6.80;6.20;;;10.30;6.70;;;;;;5119832;28;20453;-41
2024/03/14 03:13:09;;;;;;;6.63;6.03;;;10.20;7.10;;;;;;5119413;28;20457;-41
2024/03/14 03:15:35;;;;;;;7.13;6.43;;;10.20;10.80;;;;;;5120002;28;20192;-41
2024/03/14 03:18:01;;;;;;;6.50;5.90;;;10.10;14.70;;;;;;5120087;28;20750;-43
2024/03/14 03:20:27;;;;;;;6.70;6.10;;;10.10;18.40;;;;;;5119566;28;20187;-43
2024/03/14 03:23:09;;;;;;;6.40;5.80;;;10.10;19.30;;;;;;5120014;28;20215;-41
2024/03/14 03:25:35;;;;;;;6.77;6.17;;;10.10;20.00;;;;;;5119847;28;20176;-41
2024/03/14 03:28:04;;;;;;;6.83;6.23;;;10.00;16.40;;;;;;5119376;28;20484;-41
2024/03/14 03:30:30;;;;;;;7.17;6.47;;;10.00;20.30;;;;;;5119544;28;20827;-42
2024/03/14 03:32:55;;;;;;;6.57;5.93;;;10.00;18.10;;;;;;5101457;28;20421;-41
2024/03/14 03:35:21;;;;;;;6.60;6.00;;;9.90;12.00;;;;;;5119269;28;20233;-41
2024/03/14 03:37:47;;;;;;;6.30;5.70;;;9.90;15.60;;;;;;5101262;28;20589;-41
2024/03/14 03:40:21;;;;;;;7.43;6.57;;;9.90;21.20;;;;;;5119591;28;20425;-42
2024/03/14 03:42:48;;;;;;;7.37;6.77;;;9.80;21.00;;;;;;5119226;28;20465;-40
2024/03/14 03:45:14;;;;;;;8.10;7.30;;;9.80;24.30;;;;;;5119474;28;20410;-42
2024/03/14 03:47:40;;;;;;;7.17;6.53;;;9.80;30.00;;;;;;5119552;28;20412;-40
2024/03/14 03:50:08;;;;;;;7.23;6.53;;;9.80;41.10;;;;;;5119422;28;20783;-43
2024/03/14 03:53:11;;;;;;;6.50;5.90;;;9.70;39.70;;;;;;5119556;28;20433;-42
2024/03/14 03:55:36;;;;;;;7.70;7.00;;;9.70;43.50;;;;;;5118969;28;20432;-41
2024/03/14 03:58:02;;;;;;;7.10;6.30;;;9.70;48.10;;;;;;5119110;28;20708;-40
2024/03/14 04:00:41;;;;;;;7.87;7.17;;;9.70;49.60;;;;;;5119873;28;20194;-43
2024/03/14 04:03:11;;;;;;;7.37;6.67;;;9.70;58.10;;;;;;5118811;28;20211;-41
2024/03/14 04:05:42;;;;;;;7.70;7.00;;;9.70;70.20;;;;;;5085107;28;20429;-44
2024/03/14 04:08:08;;;;;;;7.70;7.00;;;9.70;87.60;;;;;;5119215;28;20432;-43
2024/03/14 04:10:34;;;;;;;8.30;7.50;;;9.70;93.20;;;;;;5101362;28;20430;-43
2024/03/14 04:13:00;;;;;;;7.20;6.50;;;9.70;98.50;;;;;;5118641;28;20422;-41
2024/03/14 04:15:28;;;;;;;8.50;7.80;;;9.70;99.90;;;;;;5118324;28;20433;-42
2024/03/14 04:17:55;;;;;;;8.70;7.90;;;9.70;99.90;;;;;;5117550;28;20557;-41
2024/03/14 04:20:23;;;;;;;8.67;7.77;;;9.70;99.90;;;;;;5100470;28;20502;-41
2024/03/14 04:22:49;;;;;;;8.57;7.67;;;9.70;99.90;;;;;;5100479;28;20483;-41
2024/03/14 04:25:17;;;;;;;8.40;7.60;;;9.80;99.90;;;;;;5118636;28;20458;-42
2024/03/14 04:27:45;;;;;;;7.43;6.73;;;9.80;99.90;;;;;;5118062;28;20440;-42
2024/03/14 04:30:14;;;;;;;7.57;6.80;;;9.80;99.90;;;;;;5118320;28;20496;-41
2024/03/14 04:32:40;;;;;;;8.80;7.90;;;9.80;99.90;;;;;;5119351;28;20504;-42
2024/03/14 04:35:08;;;;;;;8.40;7.60;;;9.80;99.90;;;;;;5099443;28;20464;-42
2024/03/14 04:37:36;;;;;;;8.20;7.50;;;9.80;99.90;;;;;;5097448;28;20186;-43
2024/03/14 04:40:10;;;;;;;8.80;8.00;;;9.80;99.90;;;;;;5117790;28;20578;-41
2024/03/14 04:42:35;;;;;;;8.83;7.93;;;9.90;99.90;;;;;;5101663;28;20758;-42
2024/03/14 04:45:01;;;;;;;9.77;8.87;;;9.90;99.90;;;;;;5118278;28;20418;-43
2024/03/14 04:47:26;;;;;;;10.23;8.70;;;9.90;99.90;;;;;;5116940;28;20191;-42
2024/03/14 04:49:52;;;;;;;8.63;7.80;;;9.90;99.90;;;;;;5118433;28;20187;-42
2024/03/14 04:52:17;;;;;;;9.43;8.50;;;9.90;99.90;;;;;;5117773;28;20194;-42
2024/03/14 04:54:43;;;;;;;9.70;8.77;;;9.90;99.90;;;;;;5117784;28;20391;-42
2024/03/14 04:57:09;;;;;;;10.33;9.33;;;9.90;99.90;;;;;;5117597;28;20244;-43
2024/03/14 04:59:35;;;;;;;10.43;9.33;;;9.90;99.90;;;;;;5118306;28;20172;-42
2024/03/14 05:02:02;;;;;;;10.60;9.60;;;9.90;99.90;;;;;;5117883;28;20628;-44
2024/03/14 05:04:27;;;;;;;10.17;9.17;;;9.90;99.90;;;;;;5117940;28;20434;-45
2024/03/14 05:06:54;;;;;;;10.67;9.57;;;9.90;99.90;;;;;;5116437;28;20435;-42
2024/03/14 05:09:22;;;;;;;11.00;10.00;;;9.90;99.90;;;;;;5099546;28;20183;-43
2024/03/14 05:11:48;;;;;;;12.10;10.90;;;9.90;99.90;;;;;;5115237;28;20409;-43
2024/03/14 05:14:14;;;;;;;11.43;10.33;;;9.90;99.90;;;;;;5116236;28;20444;-42
2024/03/14 05:16:40;;;;;;;11.93;10.67;;;10.00;99.90;;;;;;5115376;28;20433;-42
2024/03/14 05:19:07;;;;;;;10.40;9.30;;;10.00;99.90;;;;;;5118287;28;20855;-42
2024/03/14 05:21:33;;;;;;;12.20;10.77;;;10.00;99.90;;;;;;5120422;28;20211;-41
2024/03/14 05:23:59;;;;;;;13.57;11.73;;;10.00;99.90;;;;;;5120873;28;20437;-42
2024/03/14 05:26:27;;;;;;;11.50;10.30;;;10.00;99.90;;;;;;5121492;28;20432;-43
2024/03/14 05:28:53;;;;;;;12.67;11.33;;;10.00;99.90;;;;;;5121391;28;20222;-44
2024/03/14 05:31:19;;;;;;;13.03;11.73;;;10.00;99.90;;;;;;5122226;28;20429;-43
2024/03/14 05:33:45;;;;;;;11.57;10.47;;;10.00;99.90;;;;;;5120957;28;20447;-41
2024/03/14 05:36:10;;;;;;;13.33;11.93;;;9.90;99.90;;;;;;5120570;28;20583;-42
2024/03/14 05:38:37;;;;;;;12.63;11.33;;;10.00;99.90;;;;;;5120823;28;20409;-41
2024/03/14 05:41:02;;;;;;;13.27;11.97;;;10.00;99.90;;;;;;5120463;28;20278;-41
2024/03/14 05:43:28;;;;;;;12.60;11.30;;;10.00;99.90;;;;;;5120715;28;20523;-43
2024/03/14 05:45:54;;;;;;;12.37;11.07;;;10.00;99.90;;;;;;5119180;28;20226;-41
2024/03/14 05:48:23;;;;;;;13.50;12.10;;;10.00;99.90;;;;;;5117560;28;20176;-40
2024/03/14 05:50:48;;;;;;;13.27;11.63;;;10.00;99.90;;;;;;5100997;28;20183;-42
2024/03/14 05:53:15;;;;;;;12.40;11.10;;;10.10;99.90;;;;;;5118049;28;20587;-42
2024/03/14 05:55:41;;;;;;;12.47;11.17;;;10.10;99.90;;;;;;5120119;28;20184;-42
2024/03/14 05:58:06;;;;;;;13.97;12.57;;;10.10;99.90;;;;;;5117936;28;20437;-43
2024/03/14 06:00:32;;;;;;;13.60;11.77;;;10.10;99.90;;;;;;5118902;28;20202;-41
2024/03/14 06:02:58;;;;;;;11.87;10.67;;;10.10;99.90;;;;;;5118298;28;20311;-43
2024/03/14 06:05:24;;;;;;;11.93;10.40;;;10.10;99.90;;;;;;5118594;28;20538;-41
2024/03/14 06:07:50;;;;;;;14.37;12.30;;;10.10;99.90;;;;;;5119503;28;20262;-43
2024/03/14 06:10:16;;;;;;;12.03;10.20;;;10.20;99.90;;;;;;5119778;28;20672;-44
2024/03/14 06:12:45;;;;;;;13.67;11.93;;;10.20;99.90;;;;;;5118682;28;20437;-42
2024/03/14 06:15:12;;;;;;;11.87;10.57;;;10.20;99.90;;;;;;5117336;28;20494;-41
2024/03/14 06:17:38;;;;;;;13.40;11.67;;;10.20;99.90;;;;;;5118012;28;20423;-42
2024/03/14 06:20:07;;;;;;;12.47;11.17;;;10.20;99.90;;;;;;5118601;28;20433;-42
2024/03/14 06:22:36;;;;;;;13.30;11.37;;;10.20;99.90;;;;;;5100782;28;20482;-44
2024/03/14 06:25:02;;;;;;;11.80;10.60;;;10.30;99.90;;;;;;5118552;28;20425;-43
2024/03/14 06:27:28;;;;;;;13.70;11.23;;;10.30;99.90;;;;;;5118643;28;20429;-42
2024/03/14 06:29:54;;;;;;;12.70;11.30;;;10.30;99.90;;;;;;5119947;27;20426;-45
2024/03/14 06:32:21;;;;;;;12.20;10.47;;;10.30;99.90;;;;;;5119453;28;20494;-42
2024/03/14 06:34:47;;;;;;;12.87;11.57;;;10.40;99.90;;;;;;5117067;28;20830;-40
2024/03/14 06:37:13;;;;;;;12.93;10.10;;;10.40;99.90;;;;;;5118191;28;20425;-43
2024/03/14 06:39:40;;;;;;;12.10;10.80;;;10.40;99.90;;;;;;5100052;28;20869;-51
2024/03/14 06:42:06;;;;;;;11.27;10.07;;;10.50;99.90;;;;;;5116416;28;20604;-46
2024/03/14 06:44:32;;;;;;;14.40;9.80;;;10.50;99.90;;;;;;5117047;28;20417;-42
2024/03/14 06:46:58;;;;;;;11.67;10.43;;;10.60;99.90;;;;;;5116123;28;20708;-41
2024/03/14 06:49:23;;;;;;;12.93;11.13;;;10.60;99.90;;;;;;5116490;28;20191;-41
2024/03/14 06:51:50;;;;;;;11.40;10.00;;;10.70;99.90;;;;;;5119225;28;20192;-42
2024/03/14 06:54:17;;;;;;;19.13;11.27;;;10.70;99.90;;;;;;5117725;28;20924;-43
2024/03/14 06:56:42;;;;;;;10.97;9.83;;;10.80;99.90;;;;;;5116817;28;20760;-41
2024/03/14 06:59:08;;;;;;;10.50;9.37;;;10.80;99.90;;;;;;5099141;28;20532;-41
2024/03/14 07:01:34;;;;;;;10.57;9.47;;;10.90;99.90;;;;;;5117754;28;20229;-41
2024/03/14 07:04:04;;;;;;;11.43;10.30;;;10.90;99.90;;;;;;5117913;28;20172;-44
2024/03/14 07:06:31;;;;;;;10.93;9.80;;;11.00;92.20;;;;;;5118030;28;20186;-41
2024/03/14 07:08:58;;;;;;;11.07;9.40;;;11.00;60.80;;;;;;5117983;28;20713;-42
2024/03/14 07:11:27;;;;;;;10.23;9.23;;;11.10;40.10;;;;;;5117304;28;20490;-42
2024/03/14 07:13:56;;;;;;;9.20;8.20;;;11.20;25.30;;;;;;5100499;28;20561;-41
2024/03/14 07:16:22;;;;;;;10.43;9.43;;;11.20;11.40;;;;;;5116997;28;20490;-43
2024/03/14 07:18:50;;;;;;;10.03;8.30;;;11.30;1.00;;;;;;5116173;28;20433;-43
2024/03/14 07:21:19;;;;;;;10.77;9.67;;;11.40;1.00;;;;;;5098911;28;20488;-41
2024/03/14 07:23:47;;;;;;;11.70;9.97;;;11.50;1.00;;;;;;5114790;28;20439;-41
2024/03/14 07:26:22;;;;;;;10.00;9.00;;;11.60;1.00;;;;;;5116003;28;20930;-44
2024/03/14 07:28:53;;;;;;;22.87;9.20;;;11.70;1.00;;;;;;5118453;28;20519;-42
2024/03/14 07:31:19;;;;;;;10.30;9.23;;;11.70;1.00;;;;;;5116088;28;20436;-41
2024/03/14 07:33:45;;;;;;;9.33;8.30;;;11.80;1.00;;;;;;5116340;28;20434;-43
2024/03/14 07:36:17;;;;;;;9.67;8.57;;;11.80;1.00;;;;;;5116214;28;20410;-40
2024/03/14 07:38:44;;;;;;;9.73;8.30;;;11.90;1.00;;;;;;5118893;28;20402;-41
2024/03/14 07:41:11;;;;;;;8.27;7.47;;;12.00;1.00;;;;;;5117007;28;20540;-41
2024/03/14 07:43:38;;;;;;;9.27;8.47;;;12.10;1.00;;;;;;5099791;28;20432;-41
2024/03/14 07:46:04;;;;;;;8.83;8.00;;;12.30;99.90;;;;;;5118166;28;20692;-43
2024/03/14 07:48:30;;;;;;;9.23;8.33;;;12.40;99.90;;;;;;5083882;28;20468;-42
2024/03/14 07:50:58;;;;;;;10.07;9.07;;;12.60;99.90;;;;;;5118472;28;20437;-41
2024/03/14 07:53:25;;;;;;;9.53;8.60;;;12.70;70.90;;;;;;5099381;28;20215;-43
2024/03/14 07:55:51;;;;;;;10.20;8.60;;;12.80;1.00;;;;;;5117579;28;20425;-42
2024/03/14 07:58:17;;;;;;;9.67;8.67;;;12.90;1.00;;;;;;5118547;28;20830;-40
2024/03/14 08:00:46;;;;;;;8.37;7.57;;;13.10;1.00;;;;;;5100313;28;20245;-42
2024/03/14 08:03:11;;;;;;;8.23;7.43;;;13.20;99.90;;;;;;5118336;28;20587;-43
2024/03/14 08:05:37;;;;;;;8.00;7.17;;;13.40;99.90;;;;;;5100289;28;20421;-42
2024/03/14 08:08:03;;;;;;;8.47;7.67;;;13.60;1.00;;;;;;5118449;28;20227;-42
2024/03/14 08:10:29;;;;;;;7.83;7.13;;;13.70;1.00;;;;;;5117308;28;20557;-42
2024/03/14 08:12:57;;;;;;;7.60;6.90;;;13.90;16.40;;;;;;5117780;28;20437;-41
2024/03/14 08:15:35;;;;;;;6.93;5.93;;;14.10;1.00;;;;;;5099632;28;20593;-45
2024/03/14 08:18:07;;;;;;;7.40;6.70;;;14.30;99.90;;;;;;5115610;28;20413;-42
2024/03/14 08:20:36;;;;;;;7.03;6.43;;;14.50;1.00;;;;;;5115858;28;20468;-44
2024/03/14 08:23:04;;;;;;;7.40;6.70;;;14.80;43.40;;;;;;5097950;28;20505;-42
2024/03/14 08:25:36;;;;;;;6.37;5.77;;;14.90;99.90;;;;;;5083184;28;20425;-41
2024/03/14 08:28:04;;;;;;;6.87;6.27;;;15.10;99.90;;;;;;5116569;28;20428;-42
2024/03/14 08:30:30;;;;;;;6.47;5.87;;;15.20;1.00;;;;;;5117575;28;20485;-41
2024/03/14 08:32:56;;;;;;;6.13;5.50;;;15.40;99.90;;;;;;5082414;28;20560;-42
2024/03/14 08:35:23;;;;;;;6.30;5.80;;;15.50;99.90;;;;;;5116728;28;20179;-42
2024/03/14 08:37:49;;;;;;;4.57;1.90;;;15.60;1.00;;;;;;5132600;27;20867;-48
2024/03/14 08:40:15;;;;;;;5.80;2.03;;;16.10;1.00;;;;;;5098865;28;20456;-45
2024/03/14 08:42:41;;;;;;;4.70;2.57;;;17.50;2.80;;;;;;5116444;28;20351;-47
2024/03/14 08:45:09;;;;;;;2.97;2.20;;;18.30;99.90;;;;;;5115207;28;20175;-47
2024/03/14 08:47:36;;;;;;;4.43;2.80;;;19.20;1.00;;;;;;5115465;28;20413;-42
2024/03/14 08:50:04;;;;;;;3.30;2.50;;;19.90;99.90;;;;;;5115251;28;20456;-43
2024/03/14 08:52:31;;;;;;;26.83;2.93;;;20.30;99.90;;;;;;5116072;28;20739;-43
2024/03/14 08:54:58;;;;;;;6.27;2.10;;;20.80;13.40;;;;;;5116029;28;20431;-44
2024/03/14 08:57:25;;;;;;;5.00;2.10;;;21.30;1.00;;;;;;5114375;28;20417;-43
2024/03/14 08:59:54;;;;;;;4.57;2.37;;;21.60;1.00;;;;;;5115406;28;20540;-42
2024/03/14 09:02:23;;;;;;;2.30;1.93;;;22.00;1.00;;;;;;5115184;28;20528;-44
2024/03/14 09:05:05;;;;;;;2.73;2.20;;;22.40;1.00;;;;;;5115501;28;20517;-43
2024/03/14 09:07:32;;;;;;;2.70;1.87;;;22.70;1.00;;;;;;5116550;28;20437;-44
2024/03/14 09:09:58;;;;;;;3.13;2.10;;;23.00;1.00;;;;;;5098677;28;20531;-45
2024/03/14 09:12:27;;;;;;;2.10;1.90;;;23.40;1.00;;;;;;5116840;28;20421;-43
2024/03/14 09:14:54;;;;;;;2.97;1.80;;;23.80;1.00;;;;;;5115453;28;20470;-43
2024/03/14 09:17:21;;;;;;;2.27;2.07;;;24.10;1.00;;;;;;5116041;28;20517;-44
2024/03/14 09:19:47;;;;;;;2.33;2.03;;;24.30;1.00;;;;;;5098365;28;20634;-43
2024/03/14 09:22:12;;;;;;;1.87;1.70;;;24.40;1.00;;;;;;5098935;28;20510;-44
2024/03/14 09:24:38;;;;;;;1.50;1.40;;;24.40;1.00;;;;;;5117172;28;20451;-43
2024/03/14 09:27:06;;;;;;;1.93;1.73;;;24.50;1.00;;;;;;5116924;28;20307;-43
2024/03/14 09:29:35;;;;;;;1.60;1.47;;;24.50;1.00;;;;;;5116853;28;20468;-43
2024/03/14 09:32:00;;;;;;;2.00;1.53;;;24.50;1.00;;;;;;5116207;28;20829;-44
2024/03/14 09:34:27;;;;;;;2.37;1.67;;;24.40;1.00;;;;;;5116021;28;20425;-44
2024/03/14 09:36:53;;;;;;;1.83;1.60;;;24.30;1.00;;;;;;5099289;28;20280;-48
2024/03/14 09:39:22;;;;;;;2.17;1.80;;;24.30;1.00;;;;;;5116669;28;20416;-44
2024/03/14 09:41:48;;;;;;;2.07;1.50;;;24.40;1.00;;;;;;5116716;28;20874;-43
2024/03/14 09:44:15;;;;;;;2.00;1.50;;;24.50;1.00;;;;;;5117249;28;20532;-43
2024/03/14 09:46:48;;;;;;;2.60;1.57;;;24.50;1.00;;;;;;5117070;28;20420;-45
2024/03/14 09:49:18;;;;;;;3.90;2.10;;;24.70;1.00;;;;;;5116400;28;20476;-43
2024/03/14 09:51:48;;;;;;;2.00;1.70;;;24.90;1.00;;;;;;5117109;28;20449;-46
2024/03/14 09:54:17;;;;;;;1.60;1.50;;;25.10;1.00;;;;;;5115562;28;20413;-44
2024/03/14 09:56:43;;;;;;;1.90;1.43;;;25.40;1.00;;;;;;5098634;28;20512;-45
2024/03/14 09:59:10;;;;;;;1.90;1.53;;;25.60;1.00;;;;;;5117190;28;20494;-44
2024/03/14 10:01:38;;;;;;;2.03;1.83;;;25.90;1.00;;;;;;5117010;28;20481;-46
2024/03/14 10:04:06;;;;;;;2.27;2.07;;;26.10;1.00;;;;;;5099313;28;20433;-46
2024/03/14 10:06:32;;;;;;;2.70;2.13;;;26.50;1.00;;;;;;5102040;28;20421;-45
2024/03/14 10:08:59;;;;;;;4.83;1.97;;;26.80;1.00;;;;;;5084854;28;21041;-44
2024/03/14 10:11:24;;;;;;;1.73;1.60;;;27.10;1.00;;;;;;5120430;28;20439;-44
2024/03/14 10:13:50;;;;;;;2.03;1.20;;;27.40;1.00;;;;;;5101373;28;20436;-42
2024/03/14 10:16:17;;;;;;;1.63;1.53;;;27.60;1.00;;;;;;5119995;28;20306;-46
2024/03/14 10:18:45;;;;;;;1.53;1.33;;;27.90;1.00;;;;;;5120881;28;20469;-43
2024/03/14 10:21:11;;;;;;;1.80;1.33;;;28.20;1.00;;;;;;5083322;28;20783;-45
2024/03/14 10:23:37;;;;;;;2.40;1.70;;;28.60;1.00;;;;;;5120217;28;20444;-44
2024/03/14 10:26:02;;;;;;;1.80;1.53;;;28.80;1.00;;;;;;5118859;28;20518;-44
2024/03/14 10:28:31;;;;;;;1.70;1.10;;;28.90;99.90;;;;;;5117835;28;20509;-45
2024/03/14 10:31:01;;;;;;;2.17;1.20;;;28.80;99.90;;;;;;5102147;28;20267;-45
2024/03/14 10:33:27;;;;;;;1.33;1.13;;;29.00;99.90;;;;;;5102526;28;20758;-45
2024/03/14 10:35:57;;;;;;;1.83;1.07;;;29.00;99.90;;;;;;5119151;28;20423;-43
2024/03/14 10:38:25;;;;;;;1.70;1.17;;;29.00;99.90;;;;;;5120085;28;20545;-45
2024/03/14 10:40:57;;;;;;;1.47;1.23;;;29.00;99.90;;;;;;5102341;28;20514;-46
2024/03/14 10:43:31;;;;;;;2.03;1.23;;;29.00;99.90;;;;;;5120003;28;20516;-48
2024/03/14 10:45:57;;;;;;;2.00;1.00;;;29.10;99.90;;;;;;5119875;28;20417;-43
2024/03/14 10:48:23;;;;;;;1.80;1.00;;;29.00;99.90;;;;;;5117889;28;20576;-44
2024/03/14 10:50:54;;;;;;;2.73;1.20;;;29.40;99.90;;;;;;5098111;28;20509;-44
2024/03/14 10:53:21;;;;;;;3.83;1.30;;;29.90;99.90;;;;;;5100505;28;20177;-47
2024/03/14 10:55:47;;;;;;;7.80;1.70;;;30.50;99.90;;;;;;5120346;28;20460;-44
2024/03/14 10:58:15;;;;;;;3.23;1.47;;;30.90;99.90;;;;;;5119811;28;20399;-43
2024/03/14 11:00:40;;;;;;;3.77;1.70;;;31.10;99.90;;;;;;5101049;28;20421;-43
2024/03/14 11:03:06;;;;;;;7.27;1.57;;;31.30;99.90;;;;;;5118583;28;20454;-44
2024/03/14 11:05:32;;;;;;;6.13;1.27;;;31.10;99.90;;;;;;5119975;28;20183;-44
2024/03/14 11:08:00;;;;;;;5.03;1.27;;;31.30;99.90;;;;;;5120016;28;20271;-44
2024/03/14 11:10:31;;;;;;;3.20;1.50;;;31.80;99.90;;;;;;5119880;28;20171;-44
2024/03/14 11:13:18;;;;;;;4.50;1.10;;;31.80;99.90;;;;;;5101933;28;20506;-44
2024/03/14 11:15:44;;;;;;;2.97;1.30;;;31.60;99.90;;;;;;5119696;28;20922;-45
2024/03/14 11:18:16;;;;;;;2.63;1.20;;;31.30;99.90;;;;;;5101517;28;20479;-46
2024/03/14 11:20:46;;;;;;;2.20;1.03;;;31.60;99.90;;;;;;5118287;28;20426;-44
2024/03/14 11:23:14;;;;;;;4.90;1.30;;;31.80;99.90;;;;;;5118846;28;20530;-45
2024/03/14 11:25:42;;;;;;;2.10;1.00;;;32.20;99.90;;;;;;5101840;28;20432;-43
2024/03/14 11:28:08;;;;;;;2.77;1.30;;;32.90;99.90;;;;;;5118619;28;20552;-43
2024/03/14 11:30:34;;;;;;;2.60;1.10;;;33.40;1.00;;;;;;5100176;28;20716;-44
2024/03/14 11:33:06;;;;;;;1.20;0.90;;;33.70;1.00;;;;;;5118589;28;20420;-47
2024/03/14 11:35:36;;;;;;;2.20;1.00;;;33.80;1.00;;;;;;5119289;28;20184;-45
2024/03/14 11:38:12;;;;;;;2.00;0.90;;;33.70;1.00;;;;;;5119040;28;20673;-46
2024/03/14 11:40:39;;;;;;;2.60;1.00;;;34.10;1.00;;;;;;5098822;28;20501;-44
2024/03/14 11:43:06;;;;;;;1.60;1.00;;;34.60;1.00;;;;;;5100063;28;20461;-44
2024/03/14 11:45:31;;;;;;;1.60;0.80;;;34.90;1.00;;;;;;5119684;28;20478;-44
2024/03/14 11:47:59;;;;;;;1.73;1.00;;;34.90;1.00;;;;;;5119635;28;20418;-46
2024/03/14 11:50:26;;;;;;;1.90;1.03;;;34.80;1.00;;;;;;5117375;28;20172;-43
2024/03/14 11:52:55;;;;;;;1.53;0.80;;;34.60;1.00;;;;;;5117072;28;20855;-47
2024/03/14 11:55:22;;;;;;;1.10;0.70;;;34.50;1.00;;;;;;5101216;28;20429;-46
2024/03/14 11:57:48;;;;;;;2.30;1.13;;;34.50;1.00;;;;;;5117123;28;20426;-47
2024/03/14 12:00:20;;;;;;;1.40;0.90;;;34.50;1.00;;;;;;5118858;28;20422;-45
2024/03/14 12:02:46;;;;;;;1.50;1.10;;;34.50;1.00;;;;;;5118324;28;20469;-46
2024/03/14 12:05:19;;;;;;;1.30;0.90;;;34.20;1.00;;;;;;5116708;28;20426;-46
2024/03/14 12:07:46;;;;;;;2.50;0.93;;;34.00;1.00;;;;;;5099306;28;20874;-46
2024/03/14 12:10:15;;;;;;;1.87;0.97;;;33.90;1.00;;;;;;5100244;28;20507;-45
2024/03/14 12:12:41;;;;;;;1.23;0.73;;;34.40;1.00;;;;;;5099072;28;20430;-45
2024/03/14 12:15:10;;;;;;;2.70;0.90;;;34.90;1.00;;;;;;5114123;28;20504;-46
2024/03/14 12:17:36;;;;;;;1.30;0.70;;;35.10;1.00;;;;;;5098878;28;20243;-45
2024/03/14 12:20:05;;;;;;;2.60;0.80;;;35.50;1.00;;;;;;5099746;28;20532;-47
2024/03/14 12:22:42;;;;;;;1.83;0.80;;;36.00;1.00;;;;;;5119201;28;20268;-44
2024/03/14 12:25:21;;;;;;;2.77;1.07;;;36.60;1.00;;;;;;5116852;28;20509;-43
2024/03/14 12:27:48;;;;;;;1.40;0.80;;;37.00;1.00;;;;;;5115087;28;20750;-47
2024/03/14 12:30:16;;;;;;;1.80;0.87;;;37.60;1.00;;;;;;5117007;28;20406;-46
2024/03/14 12:32:43;;;;;;;5.30;1.07;;;37.80;1.00;;;;;;5116396;28;20406;-46
2024/03/14 12:35:10;;;;;;;2.90;0.70;;;38.10;1.00;;;;;;5098755;28;20425;-43
2024/03/14 12:37:36;;;;;;;1.40;1.07;;;38.10;1.00;;;;;;5116318;28;20731;-44
2024/03/14 12:40:07;;;;;;;3.93;1.30;;;37.90;1.00;;;;;;5116669;28;20843;-42
2024/03/14 12:42:34;;;;;;;1.73;0.90;;;37.80;1.00;;;;;;5098374;28;20429;-48
2024/03/14 12:45:01;;;;;;;2.10;1.03;;;37.80;1.00;;;;;;5097418;28;20496;-43
2024/03/14 12:47:26;;;;;;;2.17;1.10;;;37.90;1.00;;;;;;5116686;28;20490;-45
2024/03/14 12:49:52;;;;;;;1.20;0.80;;;37.80;1.00;;;;;;5117202;28;20429;-44